createdAt,value
2022-12-09T00:01:41.017Z,0.50
2022-12-09T00:06:43.841Z,0.40
2022-12-09T00:11:46.414Z,0.30
2022-12-09T00:16:50.442Z,0.40
2022-12-09T00:21:52.964Z,0.20
2022-12-09T00:26:58.645Z,0.20
2022-12-09T00:32:01.214Z,0.30
2022-12-09T00:37:04.034Z,0.40
2022-12-09T00:42:06.569Z,0.40
2022-12-09T00:47:09.366Z,0.40
2022-12-09T00:52:12.399Z,0.30
2022-12-09T00:57:15.216Z,0.00
2022-12-09T01:02:17.783Z,-0.20
2022-12-09T01:07:21.536Z,-0.20
2022-12-09T01:12:24.583Z,-0.10
2022-12-09T01:17:27.264Z,0.00
2022-12-09T01:22:30.558Z,0.00
2022-12-09T01:27:33.067Z,0.00
2022-12-09T01:32:35.732Z,0.10
2022-12-09T01:37:38.973Z,0.10
2022-12-09T01:42:41.560Z,0.10
2022-12-09T01:47:44.486Z,0.10
2022-12-09T01:52:48.776Z,0.20
2022-12-09T01:57:51.689Z,0.30
2022-12-09T02:02:56.484Z,0.20
2022-12-09T02:07:59.543Z,0.20
2022-12-09T02:13:28.574Z,0.30
2022-12-09T02:18:50.241Z,0.30
2022-12-09T02:24:04.808Z,0.30
2022-12-09T02:29:33.852Z,0.30
2022-12-09T02:34:44.294Z,0.40
2022-12-09T02:40:14.556Z,0.40
2022-12-09T02:45:20.234Z,0.50
2022-12-09T02:50:32.190Z,0.50
2022-12-09T02:55:37.458Z,0.50
2022-12-09T03:00:41.246Z,0.40
2022-12-09T03:05:52.115Z,0.30
2022-12-09T03:11:02.445Z,0.10
2022-12-09T03:16:20.074Z,-0.30
2022-12-09T03:21:24.005Z,-0.40
2022-12-09T03:26:30.486Z,-0.50
2022-12-09T03:31:35.199Z,-0.70
2022-12-09T03:36:40.388Z,-0.80
2022-12-09T03:41:50.982Z,-1.00
2022-12-09T03:46:53.697Z,-0.90
2022-12-09T03:52:07.800Z,-0.70
2022-12-09T03:57:18.763Z,-0.80
2022-12-09T04:02:22.626Z,-0.60
2022-12-09T04:07:25.506Z,-0.60
2022-12-09T04:12:28.357Z,1.40
2022-12-09T04:17:31.290Z,-0.50
2022-12-09T04:22:34.228Z,-0.50
2022-12-09T04:27:36.923Z,-0.50
2022-12-09T04:32:39.557Z,-0.40
2022-12-09T04:37:42.136Z,-0.30
2022-12-09T04:42:44.804Z,-0.20
2022-12-09T04:47:47.667Z,-0.10
2022-12-09T04:52:50.219Z,0.10
2022-12-09T04:57:53.010Z,0.10
2022-12-09T05:02:55.623Z,0.10
2022-12-09T05:07:58.909Z,0.10
2022-12-09T05:13:01.651Z,0.00
2022-12-09T05:18:04.632Z,0.10
2022-12-09T05:23:09.597Z,0.10
2022-12-09T05:28:12.957Z,0.10
2022-12-09T05:33:15.907Z,0.20
2022-12-09T05:38:18.479Z,0.30
2022-12-09T05:43:21.694Z,0.00
2022-12-09T05:48:24.319Z,-0.10
2022-12-09T05:53:27.964Z,-0.20
2022-12-09T05:58:31.397Z,-0.30
2022-12-09T06:03:35.201Z,-0.30
2022-12-09T06:08:38.781Z,-0.10
2022-12-09T06:13:42.252Z,0.00
2022-12-09T06:18:46.024Z,0.10
2022-12-09T06:23:49.788Z,0.00
2022-12-09T06:28:53.704Z,0.00
2022-12-09T06:33:58.115Z,0.10
2022-12-09T06:39:10.014Z,0.20
2022-12-09T06:44:20.005Z,0.30
2022-12-09T06:49:26.283Z,0.30
2022-12-09T06:54:29.054Z,0.30
2022-12-09T06:59:32.211Z,0.30
2022-12-09T07:04:35.307Z,0.30
2022-12-09T07:09:38.533Z,0.20
2022-12-09T07:14:41.244Z,0.10
2022-12-09T07:19:44.079Z,0.10
2022-12-09T07:24:46.951Z,0.10
2022-12-09T07:29:49.465Z,0.10
2022-12-09T07:34:52.201Z,0.20
2022-12-09T07:39:55.283Z,0.30
2022-12-09T07:44:57.893Z,0.40
2022-12-09T07:50:06.227Z,0.40
2022-12-09T07:55:10.707Z,0.60
2022-12-09T08:00:14.186Z,0.70
2022-12-09T08:05:17.676Z,0.90
2022-12-09T08:10:20.758Z,1.10
2022-12-09T08:15:23.817Z,1.30
2022-12-09T08:20:29.446Z,1.60
2022-12-09T08:25:32.423Z,1.90
2022-12-09T08:30:36.949Z,2.20
2022-12-09T08:35:39.836Z,2.40
2022-12-09T08:40:43.024Z,2.50
2022-12-09T08:45:46.105Z,2.40
2022-12-09T08:50:48.806Z,2.40
2022-12-09T08:55:51.531Z,2.40
2022-12-09T09:00:54.365Z,2.40
2022-12-09T09:06:09.554Z,2.30
2022-12-09T09:11:19.138Z,2.10
2022-12-09T09:16:25.666Z,2.20
2022-12-09T09:21:28.495Z,2.20
2022-12-09T09:26:31.201Z,2.60
2022-12-09T09:31:35.210Z,2.80
2022-12-09T09:36:39.693Z,2.80
2022-12-09T09:42:07.747Z,2.90
2022-12-09T09:47:42.390Z,2.10
2022-12-09T09:52:45.363Z,3.30
2022-12-09T09:58:07.940Z,3.20
2022-12-09T10:03:18.723Z,3.30
2022-12-09T10:08:56.146Z,3.40
2022-12-09T10:14:12.513Z,3.30
2022-12-09T10:19:34.690Z,2.90
2022-12-09T10:24:41.185Z,2.50
2022-12-09T10:29:56.747Z,2.30
2022-12-09T10:35:00.555Z,2.40
2022-12-09T10:40:12.628Z,2.20
2022-12-09T10:45:16.336Z,1.80
2022-12-09T10:50:36.420Z,1.70
2022-12-09T10:55:43.436Z,2.00
2022-12-09T11:01:06.188Z,2.50
2022-12-09T11:06:17.738Z,2.70
2022-12-09T11:11:37.954Z,2.70
2022-12-09T11:16:40.879Z,2.50
2022-12-09T11:21:43.874Z,2.30
2022-12-09T11:26:47.125Z,2.40
2022-12-09T11:31:50.749Z,3.00
2022-12-09T11:36:57.814Z,3.20
2022-12-09T11:42:16.971Z,3.60
2022-12-09T11:53:13.802Z,3.50
2022-12-09T11:58:23.789Z,3.60
2022-12-09T12:03:38.094Z,3.50
2022-12-09T12:08:49.798Z,3.20
2022-12-09T12:14:00.358Z,3.00
2022-12-09T12:19:13.023Z,2.80
2022-12-09T12:24:40.135Z,2.80
2022-12-09T12:29:54.979Z,2.70
2022-12-09T12:35:32.856Z,2.50
2022-12-09T12:40:52.313Z,2.50
2022-12-09T12:46:17.228Z,2.40
2022-12-09T12:51:31.656Z,2.50
2022-12-09T12:56:45.565Z,2.50
2022-12-09T13:01:51.154Z,2.70
2022-12-09T13:07:21.449Z,2.70
2022-12-09T13:18:35.963Z,2.50
2022-12-09T13:23:55.445Z,2.20
2022-12-09T13:29:19.742Z,1.80
2022-12-09T13:34:44.580Z,1.50
2022-12-09T13:39:51.084Z,1.40
2022-12-09T13:45:06.408Z,1.00
2022-12-09T13:50:23.869Z,0.50
2022-12-09T13:55:29.791Z,-0.20
2022-12-09T14:00:33.086Z,0.00
2022-12-09T14:05:37.041Z,0.20
2022-12-09T14:10:45.338Z,0.10
2022-12-09T14:16:08.129Z,0.10
2022-12-09T14:21:19.729Z,0.10
2022-12-09T14:26:36.853Z,0.20
2022-12-09T14:32:01.175Z,0.30
2022-12-09T14:37:14.065Z,0.40
2022-12-09T14:42:47.388Z,0.40
2022-12-09T14:47:50.444Z,-2.60
2022-12-09T14:53:00.536Z,0.30
2022-12-09T14:58:03.729Z,0.20
2022-12-09T15:03:35.676Z,0.20
2022-12-09T15:08:42.669Z,0.20
2022-12-09T15:13:48.192Z,0.30
2022-12-09T15:18:52.375Z,0.20
2022-12-09T15:23:55.814Z,0.10
2022-12-09T15:28:59.667Z,0.20
2022-12-09T15:34:15.691Z,0.20
2022-12-09T15:39:26.328Z,0.20
2022-12-09T15:44:33.403Z,0.30
2022-12-09T15:49:45.889Z,0.40
2022-12-09T15:54:49.411Z,0.40
2022-12-09T15:59:57.258Z,0.30
2022-12-09T16:05:04.200Z,0.30
2022-12-09T16:10:13.265Z,0.40
2022-12-09T16:15:52.917Z,0.40
2022-12-09T16:21:03.268Z,0.60
2022-12-09T16:26:07.541Z,0.60
2022-12-09T16:31:21.729Z,0.70
2022-12-09T16:36:29.952Z,0.70
2022-12-09T16:41:52.476Z,0.80
2022-12-09T16:47:20.893Z,0.80
2022-12-09T16:52:25.136Z,1.00
2022-12-09T16:57:27.666Z,0.90
2022-12-09T17:02:36.249Z,0.80
2022-12-09T17:07:38.807Z,0.80
2022-12-09T17:12:41.318Z,0.80
2022-12-09T17:17:48.415Z,0.80
2022-12-09T17:22:51.531Z,0.80
2022-12-09T17:27:54.230Z,0.90
2022-12-09T17:32:59.658Z,1.00
2022-12-09T17:38:02.406Z,0.90
2022-12-09T17:43:05.009Z,0.90
2022-12-09T17:48:08.662Z,0.90
2022-12-09T17:53:11.206Z,0.90
2022-12-09T17:58:14.003Z,0.90
2022-12-09T18:03:27.435Z,0.80
2022-12-09T18:08:39.330Z,0.80
2022-12-09T18:13:41.795Z,0.80
2022-12-09T18:18:44.541Z,0.80
2022-12-09T18:23:48.393Z,0.80
2022-12-09T18:28:55.370Z,0.80
2022-12-09T18:33:58.041Z,0.80
2022-12-09T18:39:00.529Z,0.70
2022-12-09T18:44:05.253Z,0.80
2022-12-09T18:49:16.907Z,0.80
2022-12-09T18:54:25.143Z,0.80
2022-12-09T18:59:28.005Z,0.80
2022-12-09T19:04:31.012Z,0.80
2022-12-09T19:09:35.815Z,0.70
2022-12-09T19:14:38.584Z,0.70
2022-12-09T19:19:41.162Z,0.80
2022-12-09T19:24:44.294Z,0.70
2022-12-09T19:29:47.151Z,0.70
2022-12-09T19:34:49.646Z,-0.50
2022-12-09T19:39:52.220Z,0.90
2022-12-09T19:45:04.462Z,0.90
2022-12-09T19:50:09.576Z,0.70
2022-12-09T19:55:13.499Z,0.70
2022-12-09T20:00:17.338Z,0.70
2022-12-09T20:05:20.039Z,0.70
2022-12-09T20:10:22.585Z,0.70
2022-12-09T20:15:25.109Z,0.60
2022-12-09T20:20:27.769Z,0.70
2022-12-09T20:25:30.475Z,0.60
2022-12-09T20:30:33.090Z,0.60
2022-12-09T20:35:38.631Z,0.60
2022-12-09T20:40:41.484Z,0.60
2022-12-09T20:45:44.003Z,0.60
2022-12-09T20:50:46.544Z,0.70
2022-12-09T20:55:57.094Z,0.70
2022-12-09T21:01:23.906Z,0.60
2022-12-09T21:06:29.988Z,0.60
2022-12-09T21:11:33.472Z,0.70
2022-12-09T21:16:39.786Z,0.70
2022-12-09T21:21:48.488Z,0.70
2022-12-09T21:26:53.417Z,0.70
2022-12-09T21:31:56.417Z,0.80
2022-12-09T21:36:58.982Z,0.80
2022-12-09T21:42:01.647Z,0.80
2022-12-09T21:52:07.089Z,0.80
2022-12-09T21:57:09.569Z,0.90
2022-12-09T22:02:12.207Z,0.90
2022-12-09T22:07:14.880Z,0.90
2022-12-09T22:12:17.329Z,0.80
2022-12-09T22:22:22.661Z,0.90
2022-12-09T22:27:25.175Z,0.80
2022-12-09T22:32:32.816Z,0.80
2022-12-09T22:37:45.350Z,0.80
2022-12-09T22:42:47.868Z,0.80
2022-12-09T22:52:53.232Z,0.80
2022-12-09T22:57:55.686Z,0.70
2022-12-09T23:02:58.232Z,0.70
2022-12-09T23:08:00.793Z,0.70
2022-12-09T23:13:03.269Z,0.70
2022-12-09T23:18:06.243Z,0.70
2022-12-09T23:23:08.679Z,0.70
2022-12-09T23:28:11.789Z,0.70
2022-12-09T23:33:14.249Z,0.70
2022-12-09T23:38:17.067Z,0.70
2022-12-09T23:43:20.757Z,0.60
2022-12-09T23:48:23.343Z,0.60
2022-12-09T23:53:26.597Z,0.60
2022-12-09T23:58:29.054Z,0.60
